sensor_id;sensor_type;location;lat;lon;timestamp;P1;durP1;ratioP1;P2;durP2;ratioP2
41685;SDS011;27370;42.764;23.432;2022-12-10T00:01:45;29.33;;;16.75;;
41685;SDS011;27370;42.764;23.432;2022-12-10T00:04:11;31.00;;;15.70;;
41685;SDS011;27370;42.764;23.432;2022-12-10T00:06:38;27.52;;;15.45;;
41685;SDS011;27370;42.764;23.432;2022-12-10T00:09:05;25.05;;;14.52;;
41685;SDS011;27370;42.764;23.432;2022-12-10T00:11:31;27.73;;;15.98;;
41685;SDS011;27370;42.764;23.432;2022-12-10T00:13:57;25.48;;;13.82;;
41685;SDS011;27370;42.764;23.432;2022-12-10T00:16:23;26.88;;;14.60;;
41685;SDS011;27370;42.764;23.432;2022-12-10T00:18:48;33.30;;;17.80;;
41685;SDS011;27370;42.764;23.432;2022-12-10T00:21:15;39.40;;;23.95;;
41685;SDS011;27370;42.764;23.432;2022-12-10T00:23:41;30.33;;;17.63;;
41685;SDS011;27370;42.764;23.432;2022-12-10T00:26:13;30.20;;;17.65;;
41685;SDS011;27370;42.764;23.432;2022-12-10T00:28:40;34.25;;;18.45;;
41685;SDS011;27370;42.764;23.432;2022-12-10T00:31:07;26.42;;;13.75;;
41685;SDS011;27370;42.764;23.432;2022-12-10T00:33:33;21.95;;;12.65;;
41685;SDS011;27370;42.764;23.432;2022-12-10T00:36:06;24.80;;;13.05;;
41685;SDS011;27370;42.764;23.432;2022-12-10T00:38:32;22.08;;;12.25;;
41685;SDS011;27370;42.764;23.432;2022-12-10T00:40:58;24.55;;;12.52;;
41685;SDS011;27370;42.764;23.432;2022-12-10T00:43:24;24.65;;;13.05;;
41685;SDS011;27370;42.764;23.432;2022-12-10T00:45:50;22.05;;;13.18;;
41685;SDS011;27370;42.764;23.432;2022-12-10T00:48:15;27.08;;;14.98;;
41685;SDS011;27370;42.764;23.432;2022-12-10T00:50:40;25.08;;;12.90;;
41685;SDS011;27370;42.764;23.432;2022-12-10T00:53:06;26.27;;;13.20;;
41685;SDS011;27370;42.764;23.432;2022-12-10T00:55:31;19.88;;;8.90;;
41685;SDS011;27370;42.764;23.432;2022-12-10T00:57:56;28.52;;;10.05;;
41685;SDS011;27370;42.764;23.432;2022-12-10T01:00:22;18.10;;;6.53;;
41685;SDS011;27370;42.764;23.432;2022-12-10T01:02:49;21.60;;;9.43;;
41685;SDS011;27370;42.764;23.432;2022-12-10T01:05:16;13.60;;;5.13;;
41685;SDS011;27370;42.764;23.432;2022-12-10T01:07:41;24.70;;;13.45;;
41685;SDS011;27370;42.764;23.432;2022-12-10T01:10:07;13.40;;;5.25;;
41685;SDS011;27370;42.764;23.432;2022-12-10T01:12:32;13.43;;;5.05;;
41685;SDS011;27370;42.764;23.432;2022-12-10T01:14:58;14.00;;;5.68;;
41685;SDS011;27370;42.764;23.432;2022-12-10T01:17:23;12.40;;;4.90;;
41685;SDS011;27370;42.764;23.432;2022-12-10T01:19:48;16.65;;;6.45;;
41685;SDS011;27370;42.764;23.432;2022-12-10T01:22:14;13.60;;;5.30;;
41685;SDS011;27370;42.764;23.432;2022-12-10T01:24:39;14.07;;;4.75;;
41685;SDS011;27370;42.764;23.432;2022-12-10T01:27:04;24.08;;;8.10;;
41685;SDS011;27370;42.764;23.432;2022-12-10T01:29:30;15.80;;;6.38;;
41685;SDS011;27370;42.764;23.432;2022-12-10T01:31:55;14.05;;;5.20;;
41685;SDS011;27370;42.764;23.432;2022-12-10T01:34:21;14.38;;;5.30;;
41685;SDS011;27370;42.764;23.432;2022-12-10T01:36:51;15.40;;;5.28;;
41685;SDS011;27370;42.764;23.432;2022-12-10T01:39:17;10.82;;;4.95;;
41685;SDS011;27370;42.764;23.432;2022-12-10T01:46:40;13.80;;;5.70;;
41685;SDS011;27370;42.764;23.432;2022-12-10T01:49:07;12.98;;;5.22;;
41685;SDS011;27370;42.764;23.432;2022-12-10T01:51:33;17.02;;;7.28;;
41685;SDS011;27370;42.764;23.432;2022-12-10T01:54:02;15.02;;;6.15;;
41685;SDS011;27370;42.764;23.432;2022-12-10T01:56:27;19.38;;;6.88;;
41685;SDS011;27370;42.764;23.432;2022-12-10T01:58:54;16.67;;;5.20;;
41685;SDS011;27370;42.764;23.432;2022-12-10T02:01:24;18.77;;;6.60;;
41685;SDS011;27370;42.764;23.432;2022-12-10T02:03:52;15.98;;;7.10;;
41685;SDS011;27370;42.764;23.432;2022-12-10T02:14:04;13.20;;;5.35;;
41685;SDS011;27370;42.764;23.432;2022-12-10T02:16:34;13.88;;;5.60;;
41685;SDS011;27370;42.764;23.432;2022-12-10T02:21:37;12.60;;;5.13;;
41685;SDS011;27370;42.764;23.432;2022-12-10T02:24:05;13.88;;;6.30;;
41685;SDS011;27370;42.764;23.432;2022-12-10T02:31:29;14.38;;;6.40;;
41685;SDS011;27370;42.764;23.432;2022-12-10T02:33:57;15.35;;;6.40;;
41685;SDS011;27370;42.764;23.432;2022-12-10T02:36:24;15.68;;;6.78;;
41685;SDS011;27370;42.764;23.432;2022-12-10T02:38:50;15.73;;;6.78;;
41685;SDS011;27370;42.764;23.432;2022-12-10T02:41:18;14.20;;;6.35;;
41685;SDS011;27370;42.764;23.432;2022-12-10T02:46:13;19.92;;;10.20;;
41685;SDS011;27370;42.764;23.432;2022-12-10T02:48:39;19.63;;;9.57;;
41685;SDS011;27370;42.764;23.432;2022-12-10T02:51:05;19.33;;;11.27;;
41685;SDS011;27370;42.764;23.432;2022-12-10T02:53:30;16.00;;;7.80;;
41685;SDS011;27370;42.764;23.432;2022-12-10T03:04:01;16.98;;;8.75;;
41685;SDS011;27370;42.764;23.432;2022-12-10T03:06:41;14.43;;;6.78;;
41685;SDS011;27370;42.764;23.432;2022-12-10T03:09:11;13.30;;;7.05;;
41685;SDS011;27370;42.764;23.432;2022-12-10T03:11:37;15.95;;;7.68;;
41685;SDS011;27370;42.764;23.432;2022-12-10T03:14:15;17.70;;;7.63;;
41685;SDS011;27370;42.764;23.432;2022-12-10T03:16:42;17.23;;;8.02;;
41685;SDS011;27370;42.764;23.432;2022-12-10T03:19:19;18.50;;;8.43;;
41685;SDS011;27370;42.764;23.432;2022-12-10T03:21:46;20.35;;;9.88;;
41685;SDS011;27370;42.764;23.432;2022-12-10T03:24:13;22.08;;;9.88;;
41685;SDS011;27370;42.764;23.432;2022-12-10T03:26:40;15.50;;;8.70;;
41685;SDS011;27370;42.764;23.432;2022-12-10T03:29:11;19.65;;;11.90;;
41685;SDS011;27370;42.764;23.432;2022-12-10T03:31:38;23.17;;;12.35;;
41685;SDS011;27370;42.764;23.432;2022-12-10T03:34:04;19.38;;;9.40;;
41685;SDS011;27370;42.764;23.432;2022-12-10T03:36:29;17.67;;;8.55;;
41685;SDS011;27370;42.764;23.432;2022-12-10T03:38:55;18.27;;;7.90;;
41685;SDS011;27370;42.764;23.432;2022-12-10T03:41:21;15.43;;;7.45;;
41685;SDS011;27370;42.764;23.432;2022-12-10T03:43:54;15.55;;;8.20;;
41685;SDS011;27370;42.764;23.432;2022-12-10T03:46:20;18.27;;;9.32;;
41685;SDS011;27370;42.764;23.432;2022-12-10T03:48:45;13.82;;;7.18;;
41685;SDS011;27370;42.764;23.432;2022-12-10T03:51:11;14.35;;;7.55;;
41685;SDS011;27370;42.764;23.432;2022-12-10T03:53:36;23.42;;;10.40;;
41685;SDS011;27370;42.764;23.432;2022-12-10T03:59:04;19.77;;;10.18;;
41685;SDS011;27370;42.764;23.432;2022-12-10T04:01:29;19.70;;;8.57;;
41685;SDS011;27370;42.764;23.432;2022-12-10T04:03:55;18.55;;;8.63;;
41685;SDS011;27370;42.764;23.432;2022-12-10T04:06:20;19.13;;;7.75;;
41685;SDS011;27370;42.764;23.432;2022-12-10T04:08:46;15.70;;;7.78;;
41685;SDS011;27370;42.764;23.432;2022-12-10T04:11:12;14.85;;;7.15;;
41685;SDS011;27370;42.764;23.432;2022-12-10T04:13:37;16.98;;;8.27;;
41685;SDS011;27370;42.764;23.432;2022-12-10T04:16:22;19.23;;;7.50;;
41685;SDS011;27370;42.764;23.432;2022-12-10T04:18:57;14.88;;;7.28;;
41685;SDS011;27370;42.764;23.432;2022-12-10T04:21:23;13.82;;;7.28;;
41685;SDS011;27370;42.764;23.432;2022-12-10T04:24:10;14.55;;;7.43;;
41685;SDS011;27370;42.764;23.432;2022-12-10T04:26:55;19.17;;;8.20;;
41685;SDS011;27370;42.764;23.432;2022-12-10T04:29:25;15.88;;;8.35;;
41685;SDS011;27370;42.764;23.432;2022-12-10T04:31:51;17.33;;;9.02;;
41685;SDS011;27370;42.764;23.432;2022-12-10T04:34:16;23.05;;;11.20;;
41685;SDS011;27370;42.764;23.432;2022-12-10T04:36:41;31.25;;;20.85;;
41685;SDS011;27370;42.764;23.432;2022-12-10T04:39:07;28.13;;;17.25;;
41685;SDS011;27370;42.764;23.432;2022-12-10T04:41:32;24.67;;;16.50;;
41685;SDS011;27370;42.764;23.432;2022-12-10T04:43:58;21.20;;;11.98;;
41685;SDS011;27370;42.764;23.432;2022-12-10T04:46:23;16.70;;;8.93;;
41685;SDS011;27370;42.764;23.432;2022-12-10T04:48:49;20.98;;;9.90;;
41685;SDS011;27370;42.764;23.432;2022-12-10T04:51:14;15.85;;;7.97;;
41685;SDS011;27370;42.764;23.432;2022-12-10T04:53:39;21.88;;;8.70;;
41685;SDS011;27370;42.764;23.432;2022-12-10T04:56:05;19.08;;;8.07;;
41685;SDS011;27370;42.764;23.432;2022-12-10T04:58:31;19.23;;;10.30;;
41685;SDS011;27370;42.764;23.432;2022-12-10T05:01:03;20.80;;;11.70;;
41685;SDS011;27370;42.764;23.432;2022-12-10T05:03:29;21.75;;;9.30;;
41685;SDS011;27370;42.764;23.432;2022-12-10T05:05:55;22.35;;;9.85;;
41685;SDS011;27370;42.764;23.432;2022-12-10T05:08:20;21.05;;;10.23;;
41685;SDS011;27370;42.764;23.432;2022-12-10T05:10:45;18.80;;;8.77;;
41685;SDS011;27370;42.764;23.432;2022-12-10T05:13:11;19.52;;;9.23;;
41685;SDS011;27370;42.764;23.432;2022-12-10T05:15:39;20.85;;;10.30;;
41685;SDS011;27370;42.764;23.432;2022-12-10T05:18:04;21.60;;;9.75;;
41685;SDS011;27370;42.764;23.432;2022-12-10T05:20:30;19.27;;;9.65;;
41685;SDS011;27370;42.764;23.432;2022-12-10T05:22:55;22.58;;;11.35;;
41685;SDS011;27370;42.764;23.432;2022-12-10T05:25:40;19.38;;;8.93;;
41685;SDS011;27370;42.764;23.432;2022-12-10T05:28:19;21.38;;;9.73;;
41685;SDS011;27370;42.764;23.432;2022-12-10T05:30:44;18.80;;;10.35;;
41685;SDS011;27370;42.764;23.432;2022-12-10T05:33:10;23.08;;;11.43;;
41685;SDS011;27370;42.764;23.432;2022-12-10T05:35:35;21.75;;;11.70;;
41685;SDS011;27370;42.764;23.432;2022-12-10T05:38:01;22.42;;;10.32;;
41685;SDS011;27370;42.764;23.432;2022-12-10T05:40:26;18.40;;;10.27;;
41685;SDS011;27370;42.764;23.432;2022-12-10T05:42:51;22.88;;;10.40;;
41685;SDS011;27370;42.764;23.432;2022-12-10T05:45:17;20.02;;;12.27;;
41685;SDS011;27370;42.764;23.432;2022-12-10T05:47:42;21.50;;;14.15;;
41685;SDS011;27370;42.764;23.432;2022-12-10T05:50:07;21.38;;;12.20;;
41685;SDS011;27370;42.764;23.432;2022-12-10T05:52:33;19.85;;;10.85;;
41685;SDS011;27370;42.764;23.432;2022-12-10T05:54:58;19.73;;;10.10;;
41685;SDS011;27370;42.764;23.432;2022-12-10T05:57:23;22.02;;;11.18;;
41685;SDS011;27370;42.764;23.432;2022-12-10T05:59:49;21.63;;;12.50;;
41685;SDS011;27370;42.764;23.432;2022-12-10T06:02:14;22.00;;;12.52;;
41685;SDS011;27370;42.764;23.432;2022-12-10T06:04:39;21.48;;;10.82;;
41685;SDS011;27370;42.764;23.432;2022-12-10T06:07:05;19.75;;;11.93;;
41685;SDS011;27370;42.764;23.432;2022-12-10T06:09:30;19.58;;;11.20;;
41685;SDS011;27370;42.764;23.432;2022-12-10T06:11:55;27.98;;;16.15;;
41685;SDS011;27370;42.764;23.432;2022-12-10T06:14:21;23.92;;;14.82;;
41685;SDS011;27370;42.764;23.432;2022-12-10T06:16:46;21.08;;;11.27;;
41685;SDS011;27370;42.764;23.432;2022-12-10T06:19:12;18.75;;;8.57;;
41685;SDS011;27370;42.764;23.432;2022-12-10T06:21:38;16.75;;;8.27;;
41685;SDS011;27370;42.764;23.432;2022-12-10T06:24:04;19.83;;;8.93;;
41685;SDS011;27370;42.764;23.432;2022-12-10T06:26:29;21.63;;;9.50;;
41685;SDS011;27370;42.764;23.432;2022-12-10T06:28:55;27.58;;;12.85;;
41685;SDS011;27370;42.764;23.432;2022-12-10T06:31:21;20.10;;;10.02;;
41685;SDS011;27370;42.764;23.432;2022-12-10T06:33:47;18.60;;;10.43;;
41685;SDS011;27370;42.764;23.432;2022-12-10T06:36:13;27.00;;;16.30;;
41685;SDS011;27370;42.764;23.432;2022-12-10T06:38:39;26.27;;;13.20;;
41685;SDS011;27370;42.764;23.432;2022-12-10T06:41:05;25.40;;;13.93;;
41685;SDS011;27370;42.764;23.432;2022-12-10T06:43:30;20.83;;;9.40;;
41685;SDS011;27370;42.764;23.432;2022-12-10T06:45:56;17.50;;;10.30;;
41685;SDS011;27370;42.764;23.432;2022-12-10T06:48:21;21.42;;;9.40;;
41685;SDS011;27370;42.764;23.432;2022-12-10T06:50:46;18.60;;;9.40;;
41685;SDS011;27370;42.764;23.432;2022-12-10T06:53:12;17.75;;;9.25;;
41685;SDS011;27370;42.764;23.432;2022-12-10T06:55:37;21.33;;;13.18;;
41685;SDS011;27370;42.764;23.432;2022-12-10T06:58:03;23.38;;;14.82;;
41685;SDS011;27370;42.764;23.432;2022-12-10T07:00:28;22.27;;;14.52;;
41685;SDS011;27370;42.764;23.432;2022-12-10T07:02:54;19.50;;;11.73;;
41685;SDS011;27370;42.764;23.432;2022-12-10T07:05:19;18.20;;;11.55;;
41685;SDS011;27370;42.764;23.432;2022-12-10T07:07:45;16.88;;;9.75;;
41685;SDS011;27370;42.764;23.432;2022-12-10T07:10:10;18.30;;;10.55;;
41685;SDS011;27370;42.764;23.432;2022-12-10T07:12:36;17.92;;;10.50;;
41685;SDS011;27370;42.764;23.432;2022-12-10T07:15:01;19.48;;;12.38;;
41685;SDS011;27370;42.764;23.432;2022-12-10T07:17:27;14.55;;;7.20;;
41685;SDS011;27370;42.764;23.432;2022-12-10T07:19:53;14.95;;;7.60;;
41685;SDS011;27370;42.764;23.432;2022-12-10T07:22:18;19.35;;;13.45;;
41685;SDS011;27370;42.764;23.432;2022-12-10T07:24:43;19.45;;;12.20;;
41685;SDS011;27370;42.764;23.432;2022-12-10T07:27:09;19.17;;;12.80;;
41685;SDS011;27370;42.764;23.432;2022-12-10T07:29:34;21.15;;;13.85;;
41685;SDS011;27370;42.764;23.432;2022-12-10T07:32:00;22.05;;;13.07;;
41685;SDS011;27370;42.764;23.432;2022-12-10T07:34:25;21.20;;;11.55;;
41685;SDS011;27370;42.764;23.432;2022-12-10T07:36:50;24.40;;;14.18;;
41685;SDS011;27370;42.764;23.432;2022-12-10T07:39:16;17.95;;;11.60;;
41685;SDS011;27370;42.764;23.432;2022-12-10T07:41:46;25.00;;;12.95;;
41685;SDS011;27370;42.764;23.432;2022-12-10T07:44:12;22.83;;;13.73;;
41685;SDS011;27370;42.764;23.432;2022-12-10T07:46:39;25.95;;;13.95;;
41685;SDS011;27370;42.764;23.432;2022-12-10T07:49:05;18.15;;;9.55;;
41685;SDS011;27370;42.764;23.432;2022-12-10T07:51:30;22.95;;;16.02;;
41685;SDS011;27370;42.764;23.432;2022-12-10T07:53:56;20.48;;;14.43;;
41685;SDS011;27370;42.764;23.432;2022-12-10T07:56:22;16.77;;;8.85;;
41685;SDS011;27370;42.764;23.432;2022-12-10T07:58:48;13.45;;;7.18;;
41685;SDS011;27370;42.764;23.432;2022-12-10T08:01:14;13.88;;;6.63;;
41685;SDS011;27370;42.764;23.432;2022-12-10T08:03:40;14.40;;;7.60;;
41685;SDS011;27370;42.764;23.432;2022-12-10T08:06:07;15.93;;;6.90;;
41685;SDS011;27370;42.764;23.432;2022-12-10T08:08:34;16.90;;;7.10;;
41685;SDS011;27370;42.764;23.432;2022-12-10T08:11:00;17.40;;;11.05;;
41685;SDS011;27370;42.764;23.432;2022-12-10T08:13:26;48.30;;;33.53;;
41685;SDS011;27370;42.764;23.432;2022-12-10T08:15:52;23.50;;;14.15;;
41685;SDS011;27370;42.764;23.432;2022-12-10T08:18:17;38.60;;;27.95;;
41685;SDS011;27370;42.764;23.432;2022-12-10T08:20:43;17.92;;;8.18;;
41685;SDS011;27370;42.764;23.432;2022-12-10T08:23:08;14.23;;;8.60;;
41685;SDS011;27370;42.764;23.432;2022-12-10T08:25:35;16.48;;;9.70;;
41685;SDS011;27370;42.764;23.432;2022-12-10T08:28:00;19.58;;;12.93;;
41685;SDS011;27370;42.764;23.432;2022-12-10T08:30:28;28.08;;;21.23;;
41685;SDS011;27370;42.764;23.432;2022-12-10T08:32:53;16.58;;;10.68;;
41685;SDS011;27370;42.764;23.432;2022-12-10T08:35:18;15.63;;;7.57;;
41685;SDS011;27370;42.764;23.432;2022-12-10T08:37:44;18.17;;;11.60;;
41685;SDS011;27370;42.764;23.432;2022-12-10T08:40:09;17.73;;;7.40;;
41685;SDS011;27370;42.764;23.432;2022-12-10T08:42:35;13.43;;;6.68;;
41685;SDS011;27370;42.764;23.432;2022-12-10T08:45:00;12.75;;;6.60;;
41685;SDS011;27370;42.764;23.432;2022-12-10T08:47:26;14.52;;;6.40;;
41685;SDS011;27370;42.764;23.432;2022-12-10T08:49:52;14.45;;;6.60;;
41685;SDS011;27370;42.764;23.432;2022-12-10T08:52:18;13.57;;;6.43;;
41685;SDS011;27370;42.764;23.432;2022-12-10T08:54:44;13.50;;;6.22;;
41685;SDS011;27370;42.764;23.432;2022-12-10T08:57:09;13.32;;;6.28;;
41685;SDS011;27370;42.764;23.432;2022-12-10T08:59:34;11.57;;;6.20;;
41685;SDS011;27370;42.764;23.432;2022-12-10T09:02:00;15.25;;;6.72;;
41685;SDS011;27370;42.764;23.432;2022-12-10T09:04:25;16.02;;;9.48;;
41685;SDS011;27370;42.764;23.432;2022-12-10T09:06:51;14.73;;;6.13;;
41685;SDS011;27370;42.764;23.432;2022-12-10T09:09:17;13.55;;;6.63;;
41685;SDS011;27370;42.764;23.432;2022-12-10T09:11:43;12.02;;;5.80;;
41685;SDS011;27370;42.764;23.432;2022-12-10T09:14:11;9.70;;;4.90;;
41685;SDS011;27370;42.764;23.432;2022-12-10T09:16:36;14.73;;;5.53;;
41685;SDS011;27370;42.764;23.432;2022-12-10T09:19:04;12.52;;;4.95;;
41685;SDS011;27370;42.764;23.432;2022-12-10T09:21:30;9.75;;;4.60;;
41685;SDS011;27370;42.764;23.432;2022-12-10T09:23:55;15.38;;;6.85;;
41685;SDS011;27370;42.764;23.432;2022-12-10T09:26:21;15.55;;;9.02;;
41685;SDS011;27370;42.764;23.432;2022-12-10T09:28:47;30.48;;;19.65;;
41685;SDS011;27370;42.764;23.432;2022-12-10T09:31:13;16.98;;;9.85;;
41685;SDS011;27370;42.764;23.432;2022-12-10T09:33:41;17.50;;;9.70;;
41685;SDS011;27370;42.764;23.432;2022-12-10T09:36:07;17.00;;;9.32;;
41685;SDS011;27370;42.764;23.432;2022-12-10T09:38:33;13.90;;;7.43;;
41685;SDS011;27370;42.764;23.432;2022-12-10T09:41:00;13.25;;;5.78;;
41685;SDS011;27370;42.764;23.432;2022-12-10T09:43:39;21.63;;;10.27;;
41685;SDS011;27370;42.764;23.432;2022-12-10T09:51:09;21.17;;;11.27;;
41685;SDS011;27370;42.764;23.432;2022-12-10T09:53:36;26.13;;;17.13;;
41685;SDS011;27370;42.764;23.432;2022-12-10T09:56:02;21.00;;;12.88;;
41685;SDS011;27370;42.764;23.432;2022-12-10T09:58:28;17.15;;;8.30;;
41685;SDS011;27370;42.764;23.432;2022-12-10T10:00:55;22.38;;;11.32;;
41685;SDS011;27370;42.764;23.432;2022-12-10T10:03:21;14.27;;;5.15;;
41685;SDS011;27370;42.764;23.432;2022-12-10T10:05:48;11.63;;;4.78;;
41685;SDS011;27370;42.764;23.432;2022-12-10T10:10:39;11.68;;;4.85;;
41685;SDS011;27370;42.764;23.432;2022-12-10T10:15:34;15.20;;;9.18;;
41685;SDS011;27370;42.764;23.432;2022-12-10T10:20:37;14.48;;;7.95;;
41685;SDS011;27370;42.764;23.432;2022-12-10T10:23:03;13.90;;;6.70;;
41685;SDS011;27370;42.764;23.432;2022-12-10T10:25:28;42.13;;;22.02;;
41685;SDS011;27370;42.764;23.432;2022-12-10T10:27:54;52.47;;;28.25;;
41685;SDS011;27370;42.764;23.432;2022-12-10T10:30:20;34.15;;;18.48;;
41685;SDS011;27370;42.764;23.432;2022-12-10T10:32:53;33.50;;;19.13;;
41685;SDS011;27370;42.764;23.432;2022-12-10T10:38:36;19.63;;;10.15;;
41685;SDS011;27370;42.764;23.432;2022-12-10T10:40:44;33.42;;;20.77;;
41685;SDS011;27370;42.764;23.432;2022-12-10T10:45:56;35.70;;;25.58;;
41685;SDS011;27370;42.764;23.432;2022-12-10T10:48:23;27.48;;;18.52;;
41685;SDS011;27370;42.764;23.432;2022-12-10T10:50:53;44.53;;;30.85;;
41685;SDS011;27370;42.764;23.432;2022-12-10T10:53:29;29.35;;;16.58;;
41685;SDS011;27370;42.764;23.432;2022-12-10T10:55:57;18.45;;;10.15;;
41685;SDS011;27370;42.764;23.432;2022-12-10T10:58:23;27.70;;;16.00;;
41685;SDS011;27370;42.764;23.432;2022-12-10T11:01:07;20.40;;;9.88;;
41685;SDS011;27370;42.764;23.432;2022-12-10T11:03:33;16.23;;;8.20;;
41685;SDS011;27370;42.764;23.432;2022-12-10T11:05:59;13.63;;;6.90;;
41685;SDS011;27370;42.764;23.432;2022-12-10T11:08:26;16.55;;;8.15;;
41685;SDS011;27370;42.764;23.432;2022-12-10T11:11:04;17.42;;;7.97;;
41685;SDS011;27370;42.764;23.432;2022-12-10T11:13:31;12.80;;;7.03;;
41685;SDS011;27370;42.764;23.432;2022-12-10T11:18:42;13.85;;;6.75;;
41685;SDS011;27370;42.764;23.432;2022-12-10T11:21:17;14.38;;;6.10;;
41685;SDS011;27370;42.764;23.432;2022-12-10T11:23:54;12.82;;;6.45;;
41685;SDS011;27370;42.764;23.432;2022-12-10T11:34:16;11.15;;;5.95;;
41685;SDS011;27370;42.764;23.432;2022-12-10T11:41:50;13.10;;;4.72;;
41685;SDS011;27370;42.764;23.432;2022-12-10T12:08:49;10.43;;;4.00;;
41685;SDS011;27370;42.764;23.432;2022-12-10T12:16:12;6.85;;;3.53;;
41685;SDS011;27370;42.764;23.432;2022-12-10T12:18:50;8.60;;;3.88;;
41685;SDS011;27370;42.764;23.432;2022-12-10T12:21:18;9.32;;;3.92;;
41685;SDS011;27370;42.764;23.432;2022-12-10T12:26:11;9.45;;;3.83;;
41685;SDS011;27370;42.764;23.432;2022-12-10T12:28:41;8.77;;;3.63;;
41685;SDS011;27370;42.764;23.432;2022-12-10T12:31:13;7.93;;;3.70;;
41685;SDS011;27370;42.764;23.432;2022-12-10T12:36:14;8.13;;;3.13;;
41685;SDS011;27370;42.764;23.432;2022-12-10T12:41:17;8.40;;;3.77;;
41685;SDS011;27370;42.764;23.432;2022-12-10T12:44:00;9.13;;;3.45;;
41685;SDS011;27370;42.764;23.432;2022-12-10T12:46:38;8.07;;;2.97;;
41685;SDS011;27370;42.764;23.432;2022-12-10T12:51:42;8.07;;;2.80;;
41685;SDS011;27370;42.764;23.432;2022-12-10T12:54:10;9.27;;;3.28;;
41685;SDS011;27370;42.764;23.432;2022-12-10T13:02:20;14.32;;;8.32;;
41685;SDS011;27370;42.764;23.432;2022-12-10T13:04:47;23.52;;;16.25;;
41685;SDS011;27370;42.764;23.432;2022-12-10T13:12:29;30.20;;;24.15;;
41685;SDS011;27370;42.764;23.432;2022-12-10T13:19:52;12.65;;;7.63;;
41685;SDS011;27370;42.764;23.432;2022-12-10T13:25:20;12.77;;;7.57;;
41685;SDS011;27370;42.764;23.432;2022-12-10T13:27:54;12.02;;;5.63;;
41685;SDS011;27370;42.764;23.432;2022-12-10T13:30:34;12.75;;;3.97;;
41685;SDS011;27370;42.764;23.432;2022-12-10T13:33:17;11.68;;;3.72;;
41685;SDS011;27370;42.764;23.432;2022-12-10T13:35:50;10.27;;;3.90;;
41685;SDS011;27370;42.764;23.432;2022-12-10T13:38:20;16.63;;;6.05;;
41685;SDS011;27370;42.764;23.432;2022-12-10T13:40:56;11.45;;;4.70;;
41685;SDS011;27370;42.764;23.432;2022-12-10T13:43:39;14.65;;;4.90;;
41685;SDS011;27370;42.764;23.432;2022-12-10T13:48:49;9.45;;;2.90;;
41685;SDS011;27370;42.764;23.432;2022-12-10T13:53:50;9.98;;;3.40;;
41685;SDS011;27370;42.764;23.432;2022-12-10T13:56:23;15.40;;;9.57;;
41685;SDS011;27370;42.764;23.432;2022-12-10T14:01:38;10.80;;;4.03;;
41685;SDS011;27370;42.764;23.432;2022-12-10T14:06:40;9.05;;;3.75;;
41685;SDS011;27370;42.764;23.432;2022-12-10T14:09:11;8.07;;;3.40;;
41685;SDS011;27370;42.764;23.432;2022-12-10T14:11:39;9.93;;;3.60;;
41685;SDS011;27370;42.764;23.432;2022-12-10T14:14:06;13.68;;;5.68;;
41685;SDS011;27370;42.764;23.432;2022-12-10T14:16:35;17.02;;;8.88;;
41685;SDS011;27370;42.764;23.432;2022-12-10T14:19:03;15.15;;;5.82;;
41685;SDS011;27370;42.764;23.432;2022-12-10T14:21:35;13.77;;;5.68;;
41685;SDS011;27370;42.764;23.432;2022-12-10T14:24:02;9.25;;;4.28;;
41685;SDS011;27370;42.764;23.432;2022-12-10T14:26:28;11.65;;;4.78;;
41685;SDS011;27370;42.764;23.432;2022-12-10T14:28:56;15.35;;;5.20;;
41685;SDS011;27370;42.764;23.432;2022-12-10T14:31:25;12.23;;;4.93;;
41685;SDS011;27370;42.764;23.432;2022-12-10T14:33:51;12.02;;;5.53;;
41685;SDS011;27370;42.764;23.432;2022-12-10T14:36:51;9.65;;;4.65;;
41685;SDS011;27370;42.764;23.432;2022-12-10T14:39:42;16.33;;;6.72;;
41685;SDS011;27370;42.764;23.432;2022-12-10T14:42:02;24.73;;;13.73;;
41685;SDS011;27370;42.764;23.432;2022-12-10T14:44:28;26.23;;;13.70;;
41685;SDS011;27370;42.764;23.432;2022-12-10T14:47:05;32.30;;;15.85;;
41685;SDS011;27370;42.764;23.432;2022-12-10T14:49:31;23.65;;;12.15;;
41685;SDS011;27370;42.764;23.432;2022-12-10T14:51:56;13.75;;;6.60;;
41685;SDS011;27370;42.764;23.432;2022-12-10T14:54:30;13.63;;;6.85;;
41685;SDS011;27370;42.764;23.432;2022-12-10T14:56:58;12.73;;;5.72;;
41685;SDS011;27370;42.764;23.432;2022-12-10T14:59:26;13.68;;;7.60;;
41685;SDS011;27370;42.764;23.432;2022-12-10T15:01:56;13.57;;;6.50;;
41685;SDS011;27370;42.764;23.432;2022-12-10T15:04:23;12.65;;;5.97;;
41685;SDS011;27370;42.764;23.432;2022-12-10T15:06:49;13.65;;;5.68;;
41685;SDS011;27370;42.764;23.432;2022-12-10T15:09:19;9.80;;;5.43;;
41685;SDS011;27370;42.764;23.432;2022-12-10T15:11:45;11.30;;;5.22;;
41685;SDS011;27370;42.764;23.432;2022-12-10T15:14:17;13.77;;;6.03;;
41685;SDS011;27370;42.764;23.432;2022-12-10T15:16:44;10.27;;;5.57;;
41685;SDS011;27370;42.764;23.432;2022-12-10T15:22:01;10.82;;;4.57;;
41685;SDS011;27370;42.764;23.432;2022-12-10T15:24:37;10.60;;;4.88;;
41685;SDS011;27370;42.764;23.432;2022-12-10T15:27:13;10.82;;;5.20;;
41685;SDS011;27370;42.764;23.432;2022-12-10T15:29:39;11.90;;;5.20;;
41685;SDS011;27370;42.764;23.432;2022-12-10T15:32:06;9.07;;;4.20;;
41685;SDS011;27370;42.764;23.432;2022-12-10T15:34:39;11.63;;;4.82;;
41685;SDS011;27370;42.764;23.432;2022-12-10T15:37:05;9.05;;;4.20;;
41685;SDS011;27370;42.764;23.432;2022-12-10T15:39:32;12.32;;;5.43;;
41685;SDS011;27370;42.764;23.432;2022-12-10T15:42:00;10.70;;;4.47;;
41685;SDS011;27370;42.764;23.432;2022-12-10T15:44:27;16.10;;;5.88;;
41685;SDS011;27370;42.764;23.432;2022-12-10T15:47:01;10.55;;;4.75;;
41685;SDS011;27370;42.764;23.432;2022-12-10T15:49:27;12.25;;;5.43;;
41685;SDS011;27370;42.764;23.432;2022-12-10T15:51:53;14.35;;;6.85;;
41685;SDS011;27370;42.764;23.432;2022-12-10T15:54:40;12.07;;;5.40;;
41685;SDS011;27370;42.764;23.432;2022-12-10T15:57:23;15.45;;;7.57;;
41685;SDS011;27370;42.764;23.432;2022-12-10T15:59:59;13.77;;;5.60;;
41685;SDS011;27370;42.764;23.432;2022-12-10T16:04:50;21.48;;;10.50;;
41685;SDS011;27370;42.764;23.432;2022-12-10T16:07:16;16.92;;;9.32;;
41685;SDS011;27370;42.764;23.432;2022-12-10T16:09:43;16.60;;;9.20;;
41685;SDS011;27370;42.764;23.432;2022-12-10T16:12:11;14.98;;;6.45;;
41685;SDS011;27370;42.764;23.432;2022-12-10T16:14:37;12.37;;;5.60;;
41685;SDS011;27370;42.764;23.432;2022-12-10T16:17:02;12.43;;;5.35;;
41685;SDS011;27370;42.764;23.432;2022-12-10T16:19:28;16.20;;;8.80;;
41685;SDS011;27370;42.764;23.432;2022-12-10T16:21:53;18.95;;;7.75;;
41685;SDS011;27370;42.764;23.432;2022-12-10T16:24:19;16.23;;;8.00;;
41685;SDS011;27370;42.764;23.432;2022-12-10T16:26:44;17.75;;;8.70;;
41685;SDS011;27370;42.764;23.432;2022-12-10T16:29:09;18.13;;;8.50;;
41685;SDS011;27370;42.764;23.432;2022-12-10T16:31:35;17.33;;;9.90;;
41685;SDS011;27370;42.764;23.432;2022-12-10T16:34:00;20.02;;;8.35;;
41685;SDS011;27370;42.764;23.432;2022-12-10T16:36:26;12.82;;;6.65;;
41685;SDS011;27370;42.764;23.432;2022-12-10T16:38:51;19.45;;;12.02;;
41685;SDS011;27370;42.764;23.432;2022-12-10T16:41:23;18.10;;;10.07;;
41685;SDS011;27370;42.764;23.432;2022-12-10T16:43:49;19.52;;;10.50;;